Time,TemperatureF,DewpointF,PressureIn,WindDirection,WindDirectionDegrees,WindSpeedMPH,WindSpeedGustMPH,Humidity,HourlyPrecipIn,Conditions,Clouds,dailyrainin,SoftwareType,DateUTC
2013-08-12 00:02:00,63.0,55.0,-100.00,North,0,6.0,7.0,76,0.00,,,0.00,,2013-08-12 05:02:00,
2013-08-12 00:22:00,63.0,55.0,-100.00,North,355,3.0,7.0,76,0.00,,,0.00,,2013-08-12 05:22:00,
2013-08-12 00:32:00,62.0,55.0,-100.00,NNW,335,2.0,4.0,77,0.00,,,0.00,,2013-08-12 05:32:00,
2013-08-12 00:43:00,62.0,55.0,-100.00,NNW,330,1.0,3.0,79,0.00,,,0.00,,2013-08-12 05:43:00,
2013-08-12 00:52:00,61.0,55.0,-100.00,NNW,335,1.0,3.0,81,0.00,,,0.00,,2013-08-12 05:52:00,
2013-08-12 01:01:00,61.0,55.0,-100.00,NNW,345,3.0,4.0,82,0.00,,,0.00,,2013-08-12 06:01:00,
2013-08-12 01:11:00,60.0,55.0,-100.00,North,0,3.0,4.0,83,0.00,,,0.00,,2013-08-12 06:11:00,
2013-08-12 01:22:00,61.0,55.0,-100.00,NNW,335,4.0,4.0,85,0.00,,,0.00,,2013-08-12 06:22:00,
2013-08-12 01:52:00,61.0,55.0,-100.00,NNW,330,2.0,4.0,84,0.00,,,0.00,,2013-08-12 06:52:00,
2013-08-12 02:01:00,61.0,55.0,-100.00,NNW,335,3.0,4.0,84,0.00,,,0.00,,2013-08-12 07:01:00,
2013-08-12 02:12:00,61.0,55.0,-100.00,North,355,3.0,5.0,84,0.00,,,0.00,,2013-08-12 07:12:00,
2013-08-12 02:22:00,60.0,55.0,-100.00,North,350,3.0,4.0,84,0.00,,,0.00,,2013-08-12 07:22:00,
2013-08-12 03:02:00,58.0,55.0,-100.00,North,0,4.0,6.0,89,0.00,,,0.00,,2013-08-12 08:02:00,
2013-08-12 03:11:00,58.0,55.0,-100.00,North,0,5.0,6.0,90,0.00,,,0.00,,2013-08-12 08:11:00,
2013-08-12 03:22:00,58.0,55.0,-100.00,North,0,5.0,6.0,90,0.00,,,0.00,,2013-08-12 08:22:00,
2013-08-12 03:33:00,58.0,55.0,-100.00,North,0,6.0,7.0,90,0.00,,,0.00,,2013-08-12 08:33:00,
2013-08-12 03:43:00,58.0,55.0,-100.00,North,0,6.0,7.0,90,0.00,,,0.00,,2013-08-12 08:43:00,
2013-08-12 03:53:00,58.0,55.0,-100.00,North,0,6.0,7.0,90,0.00,,,0.00,,2013-08-12 08:53:00,
2013-08-12 04:11:00,58.0,55.0,-100.00,North,350,3.0,4.0,90,0.00,,,0.00,,2013-08-12 09:11:00,
2013-08-12 04:22:00,58.0,55.0,-100.00,North,5,4.0,5.0,90,0.00,,,0.00,,2013-08-12 09:22:00,
2013-08-12 04:32:00,58.0,55.0,-100.00,North,0,4.0,5.0,90,0.00,,,0.00,,2013-08-12 09:32:00,
2013-08-12 04:52:00,58.0,55.0,-100.00,NW,315,1.0,2.0,90,0.00,,,0.00,,2013-08-12 09:52:00,
2013-08-12 05:11:00,58.0,55.0,-100.00,NW,305,1.0,2.0,91,0.00,,,0.00,,2013-08-12 10:11:00,
2013-08-12 05:22:00,58.0,55.0,-100.00,North,350,1.0,3.0,91,0.00,,,0.00,,2013-08-12 10:22:00,
2013-08-12 05:32:00,58.0,55.0,-100.00,NW,325,1.0,2.0,91,0.00,,,0.00,,2013-08-12 10:32:00,
2013-08-12 05:43:00,57.0,55.0,-100.00,WNW,300,2.0,4.0,91,0.00,,,0.00,,2013-08-12 10:43:00,
2013-08-12 05:52:00,57.0,55.0,-100.00,WNW,300,2.0,4.0,91,0.00,,,0.00,,2013-08-12 10:52:00,
2013-08-12 06:02:00,57.0,55.0,-100.00,NNW,330,2.0,4.0,91,0.00,,,0.00,,2013-08-12 11:02:00,
2013-08-12 06:22:00,58.0,55.0,-100.00,NW,325,3.0,5.0,90,0.00,,,0.00,,2013-08-12 11:22:00,
2013-08-12 06:52:00,57.0,54.0,-100.00,NW,315,2.0,4.0,90,0.00,,,0.00,,2013-08-12 11:52:00,
2013-08-12 07:02:00,57.0,54.0,-100.00,North,0,1.0,4.0,90,0.00,,,0.00,,2013-08-12 12:02:00,
2013-08-12 07:22:00,58.0,55.0,-100.00,NW,325,1.0,4.0,89,0.00,,,0.00,,2013-08-12 12:22:00,
2013-08-12 07:32:00,59.0,55.0,-100.00,NNW,345,2.0,4.0,87,0.00,,,0.00,,2013-08-12 12:32:00,
2013-08-12 08:11:00,62.0,57.0,-100.00,North,0,4.0,7.0,83,0.00,,,0.00,,2013-08-12 13:11:00,
2013-08-12 08:22:00,63.0,57.0,-100.00,North,0,4.0,6.0,82,0.00,,,0.00,,2013-08-12 13:22:00,
2013-08-12 09:22:00,67.0,55.0,-100.00,North,0,6.0,9.0,66,0.00,,,0.00,,2013-08-12 14:22:00,
2013-08-12 10:11:00,69.0,54.0,-100.00,North,0,7.0,11.0,56,0.00,,,0.00,,2013-08-12 15:11:00,
2013-08-12 10:22:00,70.0,54.0,-100.00,North,0,9.0,12.0,54,0.00,,,0.00,,2013-08-12 15:22:00,
2013-08-12 10:43:00,70.0,52.0,-100.00,NNW,345,8.0,13.0,53,0.00,,,0.00,,2013-08-12 15:43:00,
2013-08-12 10:52:00,70.0,52.0,-100.00,NNW,335,9.0,15.0,53,0.00,,,0.00,,2013-08-12 15:52:00,
2013-08-12 11:01:00,71.0,52.0,-100.00,North,0,8.0,13.0,51,0.00,,,0.00,,2013-08-12 16:01:00,
2013-08-12 11:11:00,71.0,52.0,-100.00,North,0,7.0,13.0,51,0.00,,,0.00,,2013-08-12 16:11:00,
2013-08-12 11:22:00,71.0,52.0,-100.00,NW,325,8.0,14.0,48,0.00,,,0.00,,2013-08-12 16:22:00,
2013-08-12 12:02:00,72.0,50.0,-100.00,NNW,340,11.0,16.0,47,0.00,,,0.00,,2013-08-12 17:02:00,
2013-08-12 12:22:00,73.0,52.0,-100.00,NW,315,9.0,16.0,47,0.00,,,0.00,,2013-08-12 17:22:00,
2013-08-12 12:52:00,73.0,52.0,-100.00,NW,325,9.0,14.0,47,0.00,,,0.00,,2013-08-12 17:52:00,
2013-08-12 13:11:00,74.0,52.0,-100.00,NW,310,9.0,16.0,44,0.00,,,0.00,,2013-08-12 18:11:00,
2013-08-12 13:23:00,74.0,52.0,-100.00,NNW,340,9.0,13.0,44,0.00,,,0.00,,2013-08-12 18:23:00,
2013-08-12 13:32:00,74.0,52.0,-100.00,NNW,345,9.0,16.0,44,0.00,,,0.00,,2013-08-12 18:32:00,
2013-08-12 13:43:00,73.0,50.0,-100.00,North,0,10.0,16.0,44,0.00,,,0.00,,2013-08-12 18:43:00,
2013-08-12 13:52:00,74.0,52.0,-100.00,NNW,330,11.0,17.0,43,0.00,,,0.00,,2013-08-12 18:52:00,
2013-08-12 14:01:00,74.0,50.0,-100.00,NNW,335,12.0,17.0,43,0.00,,,0.00,,2013-08-12 19:01:00,
2013-08-12 14:11:00,75.0,50.0,-100.00,NW,325,11.0,18.0,41,0.00,,,0.00,,2013-08-12 19:11:00,
2013-08-12 14:21:00,74.0,50.0,-100.00,North,0,10.0,16.0,41,0.00,,,0.00,,2013-08-12 19:21:00,
2013-08-12 14:32:00,76.0,50.0,-100.00,NW,325,9.0,17.0,40,0.00,,,0.00,,2013-08-12 19:32:00,
2013-08-12 15:11:00,76.0,50.0,-100.00,NW,325,11.0,19.0,39,0.00,,,0.00,,2013-08-12 20:11:00,
2013-08-12 15:22:00,75.0,50.0,-100.00,NNW,340,9.0,17.0,40,0.00,,,0.00,,2013-08-12 20:22:00,
2013-08-12 15:32:00,75.0,50.0,-100.00,NNW,330,14.0,18.0,41,0.00,,,0.00,,2013-08-12 20:32:00,
2013-08-12 15:52:00,76.0,50.0,-100.00,NW,320,11.0,17.0,40,0.00,,,0.00,,2013-08-12 20:52:00,
2013-08-12 16:12:00,76.0,50.0,-100.00,NNW,335,11.0,18.0,41,0.00,,,0.00,,2013-08-12 21:12:00,
2013-08-12 16:22:00,76.0,52.0,-100.00,North,0,10.0,18.0,42,0.00,,,0.00,,2013-08-12 21:22:00,
2013-08-12 16:32:00,77.0,52.0,-100.00,NNW,340,10.0,16.0,41,0.00,,,0.00,,2013-08-12 21:32:00,
2013-08-12 16:43:00,77.0,54.0,-100.00,NNW,335,7.0,17.0,42,0.00,,,0.00,,2013-08-12 21:43:00,
2013-08-12 17:02:00,76.0,52.0,-100.00,NW,320,12.0,17.0,41,0.00,,,0.00,,2013-08-12 22:02:00,
2013-08-12 17:21:00,76.0,52.0,-100.00,NW,320,13.0,18.0,41,0.00,,,0.00,,2013-08-12 22:21:00,
2013-08-12 18:11:00,76.0,52.0,-100.00,North,0,9.0,16.0,43,0.00,,,0.00,,2013-08-12 23:11:00,
2013-08-12 18:22:00,76.0,52.0,-100.00,North,5,12.0,16.0,42,0.00,,,0.00,,2013-08-12 23:22:00,